createdAt,value
2018-05-29T00:02:19.437Z,100899.41
2018-05-29T00:04:46.886Z,100905.86
2018-05-29T00:07:14.280Z,100909.14
2018-05-29T00:09:41.681Z,100904.16
2018-05-29T00:12:09.097Z,100909.64
2018-05-29T00:14:36.503Z,100904.91
2018-05-29T00:17:03.913Z,100906.34
2018-05-29T00:19:31.321Z,100904.57
2018-05-29T00:21:58.737Z,100905.49
2018-05-29T00:24:26.145Z,100903.95
2018-05-29T00:26:53.550Z,100905.39
2018-05-29T00:29:20.957Z,100899.99
2018-05-29T00:31:48.357Z,100899.25
2018-05-29T00:34:15.748Z,100901.97
2018-05-29T00:36:43.165Z,100898.13
2018-05-29T00:39:10.557Z,100889.61
2018-05-29T00:41:37.969Z,100889.40
2018-05-29T00:44:05.373Z,100886.48
2018-05-29T00:46:32.777Z,100890.20
2018-05-29T00:49:00.177Z,100897.87
2018-05-29T00:51:27.609Z,100892.70
2018-05-29T00:53:54.993Z,100895.28
2018-05-29T00:56:22.405Z,100897.54
2018-05-29T00:58:49.805Z,100900.75
2018-05-29T01:01:17.209Z,100898.57
2018-05-29T01:03:44.605Z,100895.27
2018-05-29T01:06:12.021Z,100901.48
2018-05-29T01:08:39.417Z,100902.41
2018-05-29T01:11:06.813Z,100901.78
2018-05-29T01:13:34.225Z,100902.50
2018-05-29T01:16:01.617Z,100906.52
2018-05-29T01:18:29.022Z,100893.45
2018-05-29T01:20:56.442Z,100897.59
2018-05-29T01:23:23.837Z,100905.36
2018-05-29T01:25:51.237Z,100896.33
2018-05-29T01:28:18.646Z,100895.06
2018-05-29T01:30:46.045Z,100891.64
2018-05-29T01:33:13.440Z,100893.63
2018-05-29T01:35:40.882Z,100892.88
2018-05-29T01:38:08.278Z,100881.52
2018-05-29T01:40:35.681Z,100888.14
2018-05-29T01:43:03.086Z,100883.89
2018-05-29T01:45:30.486Z,100881.91
2018-05-29T01:47:57.881Z,100881.28
2018-05-29T01:50:25.281Z,100873.72
2018-05-29T01:52:52.681Z,100871.73
2018-05-29T01:55:20.077Z,100872.77
2018-05-29T01:57:47.481Z,100869.76
2018-05-29T02:00:14.879Z,100868.91
2018-05-29T02:02:42.302Z,100876.36
2018-05-29T02:05:09.726Z,100865.14
2018-05-29T02:07:37.129Z,100868.45
2018-05-29T02:10:04.533Z,100863.66
2018-05-29T02:12:31.934Z,100858.44
2018-05-29T02:14:59.345Z,100855.34
2018-05-29T02:17:26.747Z,100858.72
2018-05-29T02:19:54.146Z,100852.19
2018-05-29T02:22:21.545Z,100853.92
2018-05-29T02:24:48.941Z,100855.17
2018-05-29T02:27:16.357Z,100853.12
2018-05-29T02:29:43.749Z,100854.46
2018-05-29T02:32:11.146Z,100853.63
2018-05-29T02:34:38.553Z,100857.34
2018-05-29T02:37:05.945Z,100856.10
2018-05-29T02:39:33.353Z,100851.43
2018-05-29T02:42:00.768Z,100847.91
2018-05-29T02:44:28.155Z,100846.86
2018-05-29T02:46:55.566Z,100846.34
2018-05-29T02:49:22.965Z,100846.22
2018-05-29T02:51:50.372Z,100843.09
2018-05-29T02:54:17.769Z,100835.22
2018-05-29T02:56:45.169Z,100835.31
2018-05-29T02:59:12.577Z,100837.37
2018-05-29T03:01:39.981Z,100832.09
2018-05-29T03:04:07.384Z,100832.58
2018-05-29T03:06:34.826Z,100831.45
2018-05-29T03:09:02.212Z,100832.16
2018-05-29T03:11:29.625Z,100827.40
2018-05-29T03:13:57.024Z,100824.27
2018-05-29T03:16:24.429Z,100820.11
2018-05-29T03:18:51.829Z,100824.66
2018-05-29T03:21:19.225Z,100821.75
2018-05-29T03:23:46.634Z,100822.04
2018-05-29T03:26:14.033Z,100824.86
2018-05-29T03:28:41.447Z,100827.96
2018-05-29T03:31:08.839Z,100829.91
2018-05-29T03:33:36.241Z,100831.55
2018-05-29T03:36:03.648Z,100835.55
2018-05-29T03:38:31.045Z,100839.46
2018-05-29T03:40:58.468Z,100836.52
2018-05-29T03:43:25.872Z,100842.16
2018-05-29T03:45:53.269Z,100844.81
2018-05-29T03:48:20.699Z,100841.80
2018-05-29T03:50:48.106Z,100843.05
2018-05-29T03:53:15.519Z,100837.39
2018-05-29T03:55:42.917Z,100842.80
2018-05-29T03:58:10.325Z,100848.62
2018-05-29T04:00:37.725Z,100851.82
2018-05-29T04:03:05.145Z,100846.06
2018-05-29T04:05:32.553Z,100853.67
2018-05-29T04:07:59.950Z,100853.00
2018-05-29T04:10:28.193Z,100848.55
2018-05-29T04:12:55.678Z,100846.57
2018-05-29T04:15:23.132Z,100847.30
2018-05-29T04:17:50.887Z,100844.84
2018-05-29T04:20:18.867Z,100845.48
2018-05-29T04:22:46.261Z,100841.88
2018-05-29T04:25:13.677Z,100852.01
2018-05-29T04:27:41.079Z,100854.92
2018-05-29T04:30:08.481Z,100866.60
2018-05-29T04:32:35.878Z,100874.28
2018-05-29T04:35:03.276Z,100873.58
2018-05-29T04:37:30.687Z,100867.63
2018-05-29T04:39:58.081Z,100862.98
2018-05-29T04:42:25.889Z,100873.26
2018-05-29T04:44:53.285Z,100883.34
2018-05-29T04:47:20.689Z,100883.05
2018-05-29T04:49:48.094Z,100885.96
2018-05-29T04:52:15.493Z,100877.48
2018-05-29T04:54:42.901Z,100884.23
2018-05-29T04:57:10.305Z,100892.00
2018-05-29T04:59:37.713Z,100895.84
2018-05-29T05:02:05.117Z,100895.75
2018-05-29T05:04:32.509Z,100883.97
2018-05-29T05:06:59.957Z,100880.77
2018-05-29T05:09:27.342Z,100882.84
2018-05-29T05:11:54.737Z,100878.08
2018-05-29T05:14:22.137Z,100876.64
2018-05-29T05:16:49.537Z,100871.16
2018-05-29T05:19:16.945Z,100867.64
2018-05-29T05:21:44.349Z,100864.85
2018-05-29T05:24:11.742Z,100867.77
2018-05-29T05:26:39.145Z,100873.84
2018-05-29T05:29:06.545Z,100870.64
2018-05-29T05:31:34.052Z,100868.78
2018-05-29T05:34:01.477Z,100861.77
2018-05-29T05:36:29.093Z,100856.09
2018-05-29T05:38:56.498Z,100850.84
2018-05-29T05:41:23.904Z,100857.37
2018-05-29T05:43:51.309Z,100866.59
2018-05-29T05:46:18.706Z,100862.27
2018-05-29T05:48:46.114Z,100866.94
2018-05-29T05:51:13.513Z,100857.86
2018-05-29T05:53:40.905Z,100857.78
2018-05-29T05:56:08.316Z,100860.92
2018-05-29T05:58:35.709Z,100865.67
2018-05-29T06:01:03.118Z,100853.59
2018-05-29T06:03:30.537Z,100862.10
2018-05-29T06:05:57.929Z,100860.58
2018-05-29T06:08:25.338Z,100860.16
2018-05-29T06:10:52.741Z,100857.38
2018-05-29T06:13:20.153Z,100851.60
2018-05-29T06:15:47.553Z,100852.55
2018-05-29T06:18:14.962Z,100847.29
2018-05-29T06:20:42.363Z,100850.48
2018-05-29T06:23:09.769Z,100844.38
2018-05-29T06:25:37.171Z,100844.08
2018-05-29T06:28:04.573Z,100844.20
2018-05-29T06:30:32.037Z,100845.66
2018-05-29T06:32:59.436Z,100844.02
2018-05-29T06:35:27.229Z,100844.41
2018-05-29T06:37:54.623Z,100845.46
2018-05-29T06:40:22.017Z,100849.20
2018-05-29T06:42:49.430Z,100847.14
2018-05-29T06:45:16.837Z,100848.70
2018-05-29T06:47:44.477Z,100848.40
2018-05-29T06:50:11.877Z,100852.66
2018-05-29T06:52:39.299Z,100852.77
2018-05-29T06:55:06.684Z,100848.73
2018-05-29T06:57:34.077Z,100846.99
2018-05-29T07:00:01.483Z,100854.98
2018-05-29T07:02:28.877Z,100851.58
2018-05-29T07:04:56.289Z,100846.48
2018-05-29T07:07:23.718Z,100847.52
2018-05-29T07:09:51.097Z,100845.25
2018-05-29T07:12:18.550Z,100839.88
2018-05-29T07:14:45.972Z,100840.41
2018-05-29T07:17:13.389Z,100836.86
2018-05-29T07:19:40.788Z,100837.28
2018-05-29T07:22:08.197Z,100837.39
2018-05-29T07:24:35.628Z,100841.44
2018-05-29T07:27:03.003Z,100832.84
2018-05-29T07:29:30.413Z,100833.96
2018-05-29T07:31:57.813Z,100829.82
2018-05-29T07:34:25.500Z,100828.89
2018-05-29T07:36:52.886Z,100831.17
2018-05-29T07:39:20.285Z,100830.32
2018-05-29T07:41:47.693Z,100823.37
2018-05-29T07:44:15.105Z,100824.97
2018-05-29T07:46:42.817Z,100825.98
2018-05-29T07:49:10.221Z,100822.34
2018-05-29T07:51:37.627Z,100821.62
2018-05-29T07:54:05.026Z,100816.75
2018-05-29T07:56:32.424Z,100811.35
2018-05-29T07:59:00.164Z,100812.36
2018-05-29T08:01:27.549Z,100813.81
2018-05-29T08:03:54.945Z,100804.27
2018-05-29T08:06:22.370Z,100801.98
2018-05-29T08:08:49.748Z,100803.73
2018-05-29T08:11:17.165Z,100802.35
2018-05-29T08:13:44.561Z,100799.76
2018-05-29T08:16:11.966Z,100800.79
2018-05-29T08:18:39.396Z,100802.45
2018-05-29T08:21:06.761Z,100805.11
2018-05-29T08:23:34.541Z,100805.09
2018-05-29T08:26:01.933Z,100804.78
2018-05-29T08:28:29.337Z,100806.23
2018-05-29T08:30:56.760Z,100795.22
2018-05-29T08:33:24.149Z,100790.45
2018-05-29T08:35:51.556Z,100784.38
2018-05-29T08:38:18.963Z,100782.12
2018-05-29T08:40:46.357Z,100780.66
2018-05-29T08:43:13.767Z,100777.73
2018-05-29T08:45:41.186Z,100775.91
2018-05-29T08:48:08.591Z,100774.64
2018-05-29T08:50:35.986Z,100773.76
2018-05-29T08:53:03.391Z,100767.52
2018-05-29T08:55:30.781Z,100770.20
2018-05-29T08:57:58.185Z,100761.87
2018-05-29T09:00:25.582Z,100771.58
2018-05-29T09:02:52.977Z,100765.23
2018-05-29T09:05:20.386Z,100756.58
2018-05-29T09:07:47.785Z,100759.79
2018-05-29T09:10:15.189Z,100755.00
2018-05-29T09:12:42.585Z,100751.41
2018-05-29T09:15:09.995Z,100753.58
2018-05-29T09:17:37.399Z,100747.23
2018-05-29T09:20:04.827Z,100747.75
2018-05-29T09:22:32.202Z,100749.66
2018-05-29T09:24:59.598Z,100749.73
2018-05-29T09:27:27.000Z,100743.97
2018-05-29T09:29:54.418Z,100742.56
2018-05-29T09:32:21.822Z,100736.00
2018-05-29T09:34:49.222Z,100732.97
2018-05-29T09:37:16.625Z,100731.17
2018-05-29T09:39:44.048Z,100730.12
2018-05-29T09:42:11.437Z,100730.00
2018-05-29T09:44:38.881Z,100730.71
2018-05-29T09:47:06.247Z,100732.61
2018-05-29T09:49:33.649Z,100732.89
2018-05-29T09:52:01.051Z,100728.92
2018-05-29T09:54:28.487Z,100729.00
2018-05-29T09:56:55.845Z,100729.44
2018-05-29T09:59:23.262Z,100725.13
2018-05-29T10:01:50.673Z,100724.63
2018-05-29T10:04:18.072Z,100722.63
2018-05-29T10:06:45.481Z,100718.09
2018-05-29T10:09:12.882Z,100717.23
2018-05-29T10:11:40.278Z,100716.12
2018-05-29T10:14:07.685Z,100715.45
2018-05-29T10:16:35.081Z,100708.65
2018-05-29T10:19:02.497Z,100705.53
2018-05-29T10:21:29.912Z,100709.22
2018-05-29T10:23:57.679Z,100711.30
2018-05-29T10:26:25.070Z,100711.06
2018-05-29T10:28:52.469Z,100706.78
2018-05-29T10:31:19.873Z,100705.73
2018-05-29T10:33:47.274Z,100704.15
2018-05-29T10:36:14.692Z,100698.63
2018-05-29T10:38:42.082Z,100701.63
2018-05-29T10:41:09.489Z,100704.38
2018-05-29T10:43:36.881Z,100698.92
2018-05-29T10:46:04.307Z,100705.73
2018-05-29T10:48:31.683Z,100707.48
2018-05-29T10:50:59.134Z,100704.58
2018-05-29T10:53:26.933Z,100699.85
2018-05-29T10:55:54.329Z,100699.36
2018-05-29T10:58:21.721Z,100699.64
2018-05-29T11:00:49.590Z,100700.16
2018-05-29T11:03:16.986Z,100695.41
2018-05-29T11:05:44.389Z,100685.97
2018-05-29T11:08:11.814Z,100689.09
2018-05-29T11:10:39.215Z,100690.20
2018-05-29T11:13:06.609Z,100691.92
2018-05-29T11:15:34.019Z,100689.35
2018-05-29T11:18:01.421Z,100685.40
2018-05-29T11:20:28.817Z,100682.64
2018-05-29T11:22:56.232Z,100677.91
2018-05-29T11:25:23.626Z,100672.41
2018-05-29T11:27:51.373Z,100677.08
2018-05-29T11:30:18.765Z,100667.45
2018-05-29T11:32:46.168Z,100663.70
2018-05-29T11:35:13.582Z,100659.71
2018-05-29T11:37:40.978Z,100660.16
2018-05-29T11:40:08.377Z,100651.91
2018-05-29T11:42:35.787Z,100646.69
2018-05-29T11:45:03.197Z,100648.28
2018-05-29T11:47:30.596Z,100634.47
2018-05-29T11:49:57.985Z,100635.67
2018-05-29T11:52:25.405Z,100627.38
2018-05-29T11:54:52.833Z,100619.53
2018-05-29T11:57:20.193Z,100619.84
2018-05-29T11:59:47.841Z,100614.95
2018-05-29T12:02:15.338Z,100607.39
2018-05-29T12:04:42.737Z,100600.59
2018-05-29T12:07:10.133Z,100593.84
2018-05-29T12:09:37.602Z,100582.80
2018-05-29T12:12:16.797Z,100574.13
2018-05-29T12:14:44.553Z,100574.45
2018-05-29T12:17:11.951Z,100576.41
2018-05-29T12:19:39.341Z,100571.59
2018-05-29T12:22:06.761Z,100570.31
2018-05-29T12:24:34.170Z,100575.72
2018-05-29T12:27:01.577Z,100581.45
2018-05-29T12:29:28.969Z,100583.11
2018-05-29T12:31:56.383Z,100592.64
2018-05-29T12:34:23.823Z,100591.91
2018-05-29T12:36:51.177Z,100600.20
2018-05-29T12:39:18.577Z,100604.75
2018-05-29T12:41:45.981Z,100607.97
2018-05-29T12:44:13.407Z,100610.66
2018-05-29T12:46:40.833Z,100603.31
2018-05-29T12:49:08.237Z,100605.91
2018-05-29T12:51:35.655Z,100604.25
2018-05-29T12:54:03.047Z,100597.97
2018-05-29T12:56:30.465Z,100591.00
2018-05-29T12:58:57.857Z,100583.22
2018-05-29T13:01:25.261Z,100581.02
2018-05-29T13:03:52.654Z,100584.97
2018-05-29T13:06:20.054Z,100580.32
2018-05-29T13:08:47.468Z,100594.06
2018-05-29T13:11:14.930Z,100585.99
2018-05-29T13:13:42.270Z,100573.16
2018-05-29T13:16:09.679Z,100569.50
2018-05-29T13:18:37.081Z,100554.41
2018-05-29T13:21:04.476Z,100547.42
2018-05-29T13:23:32.183Z,100543.08
2018-05-29T13:25:59.581Z,100538.44
2018-05-29T13:28:26.973Z,100540.60
2018-05-29T13:30:54.388Z,100535.34
2018-05-29T13:33:21.788Z,100531.83
2018-05-29T13:35:49.185Z,100522.09
2018-05-29T13:38:16.583Z,100513.56
2018-05-29T13:40:43.987Z,100516.02
2018-05-29T13:43:11.382Z,100524.05
2018-05-29T13:45:38.864Z,100549.98
2018-05-29T13:48:06.250Z,100565.95
2018-05-29T13:50:33.694Z,100578.33
2018-05-29T13:53:01.114Z,100584.05
2018-05-29T13:55:28.501Z,100598.91
2018-05-29T13:57:55.911Z,100608.12
2018-05-29T14:00:23.298Z,100616.13
2018-05-29T14:02:51.055Z,100627.67
2018-05-29T14:05:18.449Z,100642.77
2018-05-29T14:07:45.915Z,100641.67
2018-05-29T14:10:13.317Z,100662.90
2018-05-29T14:12:40.721Z,100651.38
2018-05-29T14:15:08.129Z,100654.23
2018-05-29T14:17:35.525Z,100655.52
2018-05-29T14:20:03.236Z,100640.92
2018-05-29T14:22:30.646Z,100678.42
2018-05-29T14:24:58.037Z,100665.77
2018-05-29T14:27:25.430Z,100671.63
2018-05-29T14:29:52.921Z,100690.20
2018-05-29T14:32:20.348Z,100714.89
2018-05-29T14:34:47.734Z,100719.66
2018-05-29T14:37:15.133Z,100723.67
2018-05-29T14:39:42.528Z,100747.42
2018-05-29T14:42:09.925Z,100774.20
2018-05-29T14:44:37.317Z,100781.27
2018-05-29T14:47:04.741Z,100779.39
2018-05-29T14:49:32.142Z,100786.70
2018-05-29T14:51:59.533Z,100780.91
2018-05-29T14:54:26.937Z,100775.64
2018-05-29T14:56:54.370Z,100789.05
2018-05-29T14:59:21.765Z,100800.97
2018-05-29T15:01:49.169Z,100791.25
2018-05-29T15:04:16.565Z,100776.09
2018-05-29T15:06:43.977Z,100740.55
2018-05-29T15:09:11.442Z,100699.52
2018-05-29T15:11:38.781Z,100680.48
2018-05-29T15:14:06.189Z,100685.91
2018-05-29T15:16:33.582Z,100692.16
2018-05-29T15:19:00.993Z,100700.63
2018-05-29T15:21:28.396Z,100702.67
2018-05-29T15:23:55.782Z,100698.13
2018-05-29T15:26:23.181Z,100709.80
2018-05-29T15:28:50.573Z,100712.28
2018-05-29T15:31:17.971Z,100713.27
2018-05-29T15:33:45.353Z,100715.55
2018-05-29T15:36:12.758Z,100716.70
2018-05-29T15:38:40.148Z,100711.20
2018-05-29T15:41:07.527Z,100720.17
2018-05-29T15:43:34.933Z,100724.80
2018-05-29T15:46:02.327Z,100737.88
2018-05-29T15:48:29.950Z,100746.73
2018-05-29T15:50:57.379Z,100731.47
2018-05-29T15:53:24.793Z,100729.09
2018-05-29T15:55:52.193Z,100744.62
2018-05-29T15:58:19.590Z,100750.05
2018-05-29T16:00:46.986Z,100768.82
2018-05-29T16:03:14.373Z,100771.84
2018-05-29T16:05:41.775Z,100777.05
2018-05-29T16:08:09.213Z,100780.99
2018-05-29T16:10:37.005Z,100785.35
2018-05-29T16:13:04.392Z,100779.65
2018-05-29T16:15:31.781Z,100769.59
2018-05-29T16:17:59.176Z,100766.66
2018-05-29T16:20:26.561Z,100764.99
2018-05-29T16:22:53.969Z,100760.84
2018-05-29T16:25:21.373Z,100758.67
2018-05-29T16:27:48.765Z,100760.15
2018-05-29T16:30:16.153Z,100759.73
2018-05-29T16:32:43.576Z,100756.00
2018-05-29T16:35:10.965Z,100746.95
2018-05-29T16:37:38.369Z,100732.95
2018-05-29T16:40:05.759Z,100718.13
2018-05-29T16:42:33.168Z,100725.37
2018-05-29T16:45:00.575Z,100724.23
2018-05-29T16:47:27.969Z,100727.25
2018-05-29T16:49:55.373Z,100733.60
2018-05-29T16:52:22.781Z,100731.84
2018-05-29T16:54:50.182Z,100735.26
2018-05-29T16:57:17.589Z,100722.30
2018-05-29T16:59:44.993Z,100704.95
2018-05-29T17:02:12.389Z,100696.97
2018-05-29T17:04:39.859Z,100687.05
2018-05-29T17:07:07.232Z,100677.94
2018-05-29T17:09:34.609Z,100663.15
2018-05-29T17:12:02.017Z,100665.81
2018-05-29T17:14:29.419Z,100657.62
2018-05-29T17:16:56.817Z,100636.67
2018-05-29T17:19:24.273Z,100630.03
2018-05-29T17:21:51.689Z,100617.06
2018-05-29T17:24:19.107Z,100599.34
2018-05-29T17:26:46.501Z,100593.84
2018-05-29T17:29:13.905Z,100586.08
2018-05-29T17:31:41.302Z,100596.44
2018-05-29T17:34:08.709Z,100598.94
2018-05-29T17:36:36.100Z,100616.56
2018-05-29T17:39:03.523Z,100627.75
2018-05-29T17:41:30.910Z,100643.30
2018-05-29T17:43:58.357Z,100653.56
2018-05-29T17:46:25.756Z,100655.64
2018-05-29T17:48:53.425Z,100655.39
2018-05-29T17:51:20.821Z,100658.61
2018-05-29T17:53:48.217Z,100648.45
2018-05-29T17:56:15.639Z,100666.48
2018-05-29T17:58:43.025Z,100662.44
2018-05-29T18:01:10.429Z,100664.30
2018-05-29T18:03:37.829Z,100663.17
2018-05-29T18:06:05.236Z,100666.42
2018-05-29T18:08:32.625Z,100671.61
2018-05-29T18:11:00.037Z,100671.30
2018-05-29T18:13:27.429Z,100685.60
2018-05-29T18:15:54.841Z,100695.34
2018-05-29T18:18:22.249Z,100698.98
2018-05-29T18:20:49.707Z,100703.33
2018-05-29T18:23:17.065Z,100704.06
2018-05-29T18:25:44.461Z,100718.68
2018-05-29T18:28:11.865Z,100712.45
2018-05-29T18:30:39.277Z,100710.80
2018-05-29T18:33:06.691Z,100721.06
2018-05-29T18:35:34.081Z,100720.98
2018-05-29T18:38:01.481Z,100730.70
2018-05-29T18:40:28.901Z,100733.30
2018-05-29T18:42:56.293Z,100731.87
2018-05-29T18:45:23.707Z,100739.86
2018-05-29T18:47:51.114Z,100751.56
2018-05-29T18:50:18.601Z,100738.20
2018-05-29T18:52:45.929Z,100744.93
2018-05-29T18:55:13.675Z,100747.22
2018-05-29T18:57:41.150Z,100752.70
2018-05-29T19:00:08.540Z,100753.84
2018-05-29T19:02:35.963Z,100757.58
2018-05-29T19:05:03.401Z,100759.95
2018-05-29T19:07:30.807Z,100769.49
2018-05-29T19:09:58.241Z,100781.41
2018-05-29T19:12:25.641Z,100781.44
2018-05-29T19:14:53.942Z,100780.09
2018-05-29T19:17:21.355Z,100785.58
2018-05-29T19:19:48.761Z,100791.59
2018-05-29T19:22:16.184Z,100796.25
2018-05-29T19:24:43.586Z,100801.01
2018-05-29T19:27:10.982Z,100803.39
2018-05-29T19:29:38.387Z,100807.95
2018-05-29T19:32:05.781Z,100814.78
2018-05-29T19:34:33.185Z,100819.03
2018-05-29T19:37:00.585Z,100828.66
2018-05-29T19:39:27.980Z,100827.22
2018-05-29T19:41:55.410Z,100826.28
2018-05-29T19:44:22.823Z,100830.13
2018-05-29T19:46:50.217Z,100838.82
2018-05-29T19:49:17.637Z,100831.88
2018-05-29T19:51:45.042Z,100833.73
2018-05-29T19:54:12.421Z,100833.21
2018-05-29T19:56:39.834Z,100829.82
2018-05-29T19:59:07.226Z,100825.16
2018-05-29T20:01:34.869Z,100825.45
2018-05-29T20:04:02.257Z,100824.72
2018-05-29T20:06:29.653Z,100819.85
2018-05-29T20:08:57.053Z,100824.71
2018-05-29T20:11:24.446Z,100818.48
2018-05-29T20:13:51.838Z,100817.74
2018-05-29T20:16:19.233Z,100814.73
2018-05-29T20:18:46.681Z,100809.55
2018-05-29T20:21:14.067Z,100811.40
2018-05-29T20:23:41.498Z,100807.98
2018-05-29T20:26:08.911Z,100807.66
2018-05-29T20:28:36.277Z,100802.48
2018-05-29T20:31:03.689Z,100792.01
2018-05-29T20:33:31.069Z,100791.73
2018-05-29T20:35:58.472Z,100782.09
2018-05-29T20:38:25.881Z,100778.97
2018-05-29T20:40:53.261Z,100783.72
2018-05-29T20:43:20.661Z,100783.09
2018-05-29T20:45:48.061Z,100779.67
2018-05-29T20:48:15.452Z,100778.72
2018-05-29T20:50:42.837Z,100778.23
2018-05-29T20:53:10.237Z,100775.73
2018-05-29T20:55:37.626Z,100770.14
2018-05-29T20:58:05.027Z,100770.34
2018-05-29T21:00:32.422Z,100771.05
2018-05-29T21:02:59.831Z,100769.80
2018-05-29T21:05:27.213Z,100762.45
2018-05-29T21:07:54.617Z,100764.62
2018-05-29T21:10:22.005Z,100764.71
2018-05-29T21:12:49.404Z,100763.28
2018-05-29T21:15:16.805Z,100764.73
2018-05-29T21:17:44.217Z,100762.45
2018-05-29T21:20:11.617Z,100756.97
2018-05-29T21:22:39.011Z,100756.85
2018-05-29T21:25:06.407Z,100764.92
2018-05-29T21:27:33.797Z,100762.33
2018-05-29T21:30:01.574Z,100755.91
2018-05-29T21:32:29.011Z,100767.40
2018-05-29T21:34:56.396Z,100763.78
2018-05-29T21:37:23.788Z,100770.09
2018-05-29T21:39:51.177Z,100777.97
2018-05-29T21:42:18.583Z,100785.64
2018-05-29T21:44:45.961Z,100787.72
2018-05-29T21:47:13.382Z,100787.07
2018-05-29T21:49:40.776Z,100782.94
2018-05-29T21:52:08.505Z,100791.73
2018-05-29T21:54:35.888Z,100791.94
2018-05-29T21:57:03.277Z,100792.04
2018-05-29T21:59:30.673Z,100786.06
2018-05-29T22:01:58.064Z,100784.39
2018-05-29T22:04:25.465Z,100786.25
2018-05-29T22:06:52.909Z,100782.52
2018-05-29T22:09:20.338Z,100788.83
2018-05-29T22:11:47.729Z,100789.76
2018-05-29T22:14:15.134Z,100792.13
2018-05-29T22:16:42.525Z,100788.81
2018-05-29T22:19:09.909Z,100788.06
2018-05-29T22:21:37.320Z,100782.59
2018-05-29T22:24:04.707Z,100782.70
2018-05-29T22:26:32.105Z,100786.41
2018-05-29T22:28:59.497Z,100784.44
2018-05-29T22:31:26.889Z,100781.94
2018-05-29T22:33:54.273Z,100784.73
2018-05-29T22:36:21.669Z,100789.70
2018-05-29T22:38:49.062Z,100791.36
2018-05-29T22:41:16.754Z,100796.95
2018-05-29T22:43:44.141Z,100793.85
2018-05-29T22:46:11.582Z,100794.56
2018-05-29T22:48:38.983Z,100783.05
2018-05-29T22:51:06.361Z,100789.66
2018-05-29T22:53:33.800Z,100790.37
2018-05-29T22:56:01.189Z,100794.41
2018-05-29T22:58:28.592Z,100795.94
2018-05-29T23:00:55.990Z,100793.36
2018-05-29T23:03:23.394Z,100795.41
2018-05-29T23:05:50.779Z,100800.98
2018-05-29T23:08:18.177Z,100808.44
2018-05-29T23:10:45.581Z,100809.25
2018-05-29T23:13:12.969Z,100818.25
2018-05-29T23:15:40.365Z,100817.42
2018-05-29T23:18:07.749Z,100819.05
2018-05-29T23:20:35.149Z,100815.73
2018-05-29T23:23:02.558Z,100821.41
2018-05-29T23:25:29.957Z,100824.83
2018-05-29T23:27:57.347Z,100826.05
2018-05-29T23:30:25.117Z,100834.70
2018-05-29T23:32:52.501Z,100832.63
2018-05-29T23:35:19.889Z,100828.78
2018-05-29T23:37:47.289Z,100826.91
2018-05-29T23:40:14.677Z,100821.44
2018-05-29T23:42:42.077Z,100822.56
2018-05-29T23:45:09.465Z,100820.45
2018-05-29T23:47:36.865Z,100822.92
2018-05-29T23:50:04.257Z,100828.07
2018-05-29T23:52:31.660Z,100821.77
2018-05-29T23:54:59.057Z,100827.56
2018-05-29T23:57:26.449Z,100830.76
2018-05-29T23:59:53.849Z,100828.77
